Waits, New York
Current Conditions -  °F | °C
As of 11:14 AM on Thursday 23 Oct 2014 (Local Time) from KBGM Reporting Station
Overcast Overcast  
Wind Chill: 37°   Ceiling: 1000
Heat Index: 44°   Visibility: 10mi
Dew Point: 39°   Wind: 14mph
Humidity: 82%   Direction: 340°NNW
Pressure: 29.89"   Gusts: NA
Location:  42.1349°N, 76.2495°W
Report Text: KBGM 231514Z 34012KT 10SM OVC010 07/04 A2989 RMK AO2 T00670039
Loading
Personal Weather Stations






























Interactive Weather Map
Tropical Storm Tracking
New forecast layout! Learn more

10-Day Weather Forecast

Advertisements
Track Severe Weather on mobile